createdAt,value
2023-05-01T00:02:24.942Z,22.13
2023-05-01T00:04:51.794Z,22.14
2023-05-01T00:07:18.646Z,22.21
2023-05-01T00:09:45.847Z,22.29
2023-05-01T00:12:12.660Z,22.37
2023-05-01T00:14:39.454Z,22.42
2023-05-01T00:17:06.736Z,22.49
2023-05-01T00:19:33.479Z,22.60
2023-05-01T00:22:00.211Z,22.59
2023-05-01T00:24:27.388Z,22.71
2023-05-01T00:26:54.227Z,22.64
2023-05-01T00:29:21.497Z,22.40
2023-05-01T00:31:48.537Z,20.00
2023-05-01T00:34:15.503Z,19.06
2023-05-01T00:36:42.290Z,19.38
2023-05-01T00:39:09.041Z,20.58
2023-05-01T00:41:35.879Z,21.19
2023-05-01T00:44:03.119Z,21.36
2023-05-01T00:46:30.339Z,21.59
2023-05-01T00:48:57.259Z,21.76
2023-05-01T00:51:24.113Z,21.90
2023-05-01T00:53:50.985Z,21.94
2023-05-01T00:56:17.838Z,22.15
2023-05-01T00:58:44.590Z,22.04
2023-05-01T01:01:11.361Z,22.25
2023-05-01T01:03:38.173Z,22.17
2023-05-01T01:06:04.989Z,22.35
2023-05-01T01:08:32.753Z,22.38
2023-05-01T01:10:59.672Z,22.52
2023-05-01T01:13:26.431Z,22.49
2023-05-01T01:15:53.178Z,22.44
2023-05-01T01:18:20.002Z,22.59
2023-05-01T01:20:46.758Z,22.71
2023-05-01T01:23:13.575Z,22.66
2023-05-01T01:25:40.360Z,22.65
2023-05-01T01:28:07.243Z,20.19
2023-05-01T01:30:34.070Z,18.84
2023-05-01T01:33:01.342Z,19.29
2023-05-01T01:35:28.195Z,20.33
2023-05-01T01:37:54.931Z,21.15
2023-05-01T01:40:21.715Z,21.26
2023-05-01T01:42:48.575Z,21.62
2023-05-01T01:45:15.305Z,21.71
2023-05-01T01:47:42.183Z,21.78
2023-05-01T01:50:09.458Z,22.09
2023-05-01T01:52:36.305Z,22.00
2023-05-01T01:55:05.122Z,22.16
2023-05-01T01:57:31.910Z,22.09
2023-05-01T01:59:58.699Z,22.14
2023-05-01T02:02:27.165Z,22.36
2023-05-01T02:04:54.047Z,22.33
2023-05-01T02:07:20.852Z,22.37
2023-05-01T02:09:47.688Z,22.42
2023-05-01T02:12:14.424Z,22.44
2023-05-01T02:14:41.174Z,22.52
2023-05-01T02:17:07.950Z,22.57
2023-05-01T02:19:34.794Z,22.70
2023-05-01T02:22:01.555Z,22.72
2023-05-01T02:24:28.310Z,22.87
2023-05-01T02:26:55.259Z,20.83
2023-05-01T02:29:22.004Z,19.22
2023-05-01T02:31:48.797Z,19.14
2023-05-01T02:34:15.562Z,20.21
2023-05-01T02:36:42.543Z,21.02
2023-05-01T02:39:09.304Z,21.31
2023-05-01T02:41:36.135Z,21.50
2023-05-01T02:44:04.293Z,21.65
2023-05-01T02:46:31.479Z,21.83
2023-05-01T02:48:58.326Z,21.85
2023-05-01T02:51:25.228Z,22.06
2023-05-01T02:53:52.048Z,22.16
2023-05-01T02:56:18.785Z,22.15
2023-05-01T02:58:45.542Z,22.20
2023-05-01T03:01:12.428Z,22.28
2023-05-01T03:03:39.467Z,22.36
2023-05-01T03:06:06.320Z,22.43
2023-05-01T03:08:33.105Z,22.47
2023-05-01T03:10:59.942Z,22.63
2023-05-01T03:13:26.727Z,22.54
2023-05-01T03:15:53.532Z,22.63
2023-05-01T03:18:20.290Z,22.65
2023-05-01T03:20:47.017Z,21.75
2023-05-01T03:23:13.805Z,19.75
2023-05-01T03:25:40.567Z,18.68
2023-05-01T03:28:07.325Z,19.77
2023-05-01T03:30:34.959Z,20.70
2023-05-01T03:33:01.799Z,21.20
2023-05-01T03:35:29.003Z,21.42
2023-05-01T03:37:56.362Z,21.65
2023-05-01T03:40:23.411Z,21.82
2023-05-01T03:42:50.196Z,21.93
2023-05-01T03:45:16.950Z,21.95
2023-05-01T03:47:43.715Z,22.08
2023-05-01T03:50:11.103Z,22.17
2023-05-01T03:52:37.910Z,22.26
2023-05-01T03:55:04.720Z,22.25
2023-05-01T03:57:31.449Z,22.29
2023-05-01T03:59:59.305Z,22.38
2023-05-01T04:02:27.538Z,22.50
2023-05-01T04:04:54.453Z,22.50
2023-05-01T04:07:21.232Z,22.62
2023-05-01T04:09:48.322Z,22.55
2023-05-01T04:12:15.104Z,22.74
2023-05-01T04:14:43.220Z,22.72
2023-05-01T04:17:10.034Z,22.76
2023-05-01T04:19:37.784Z,21.53
2023-05-01T04:22:05.499Z,19.64
2023-05-01T04:24:32.498Z,18.71
2023-05-01T04:26:59.234Z,19.84
2023-05-01T04:29:26.114Z,20.68
2023-05-01T04:31:53.061Z,21.31
2023-05-01T04:34:19.930Z,21.46
2023-05-01T04:36:46.856Z,21.71
2023-05-01T04:39:13.599Z,21.81
2023-05-01T04:41:40.346Z,21.83
2023-05-01T04:44:07.133Z,22.01
2023-05-01T04:46:33.923Z,22.00
2023-05-01T04:49:00.817Z,22.10
2023-05-01T04:51:28.936Z,22.11
2023-05-01T04:53:55.705Z,22.19
2023-05-01T04:56:22.450Z,22.21
2023-05-01T04:58:49.315Z,22.37
2023-05-01T05:01:16.114Z,22.45
2023-05-01T05:03:43.138Z,22.41
2023-05-01T05:06:11.220Z,22.54
2023-05-01T05:08:38.047Z,22.62
2023-05-01T05:11:04.831Z,22.56
2023-05-01T05:13:31.636Z,22.57
2023-05-01T05:15:58.507Z,22.71
2023-05-01T05:18:25.365Z,22.24
2023-05-01T05:20:52.305Z,19.39
2023-05-01T05:23:19.060Z,17.79
2023-05-01T05:25:45.800Z,19.25
2023-05-01T05:28:12.545Z,20.44
2023-05-01T05:30:39.289Z,20.96
2023-05-01T05:33:06.141Z,21.29
2023-05-01T05:35:32.930Z,21.44
2023-05-01T05:37:59.713Z,21.66
2023-05-01T05:40:26.492Z,21.67
2023-05-01T05:42:53.502Z,21.81
2023-05-01T05:45:20.358Z,21.97
2023-05-01T05:47:47.175Z,22.03
2023-05-01T05:50:14.043Z,22.13
2023-05-01T05:52:40.797Z,22.23
2023-05-01T05:55:07.640Z,22.22
2023-05-01T05:57:37.221Z,22.26
2023-05-01T06:00:05.397Z,22.38
2023-05-01T06:02:32.301Z,22.46
2023-05-01T06:04:59.280Z,22.63
2023-05-01T06:07:26.189Z,22.55
2023-05-01T06:09:53.214Z,22.58
2023-05-01T06:12:19.971Z,22.62
2023-05-01T06:14:47.139Z,21.90
2023-05-01T06:17:14.117Z,19.78
2023-05-01T06:19:41.312Z,18.49
2023-05-01T06:22:08.077Z,19.71
2023-05-01T06:24:36.547Z,20.68
2023-05-01T06:27:03.315Z,21.19
2023-05-01T06:29:30.890Z,21.53
2023-05-01T06:31:57.790Z,21.61
2023-05-01T06:34:24.717Z,21.73
2023-05-01T06:36:51.462Z,21.80
2023-05-01T06:39:18.257Z,21.89
2023-05-01T06:41:45.326Z,22.05
2023-05-01T06:44:12.053Z,22.06
2023-05-01T06:46:38.819Z,22.19
2023-05-01T06:49:06.514Z,22.22
2023-05-01T06:51:33.277Z,22.35
2023-05-01T06:54:00.022Z,22.42
2023-05-01T06:56:26.901Z,22.45
2023-05-01T06:58:53.643Z,22.50
2023-05-01T07:01:20.474Z,22.55
2023-05-01T07:03:47.571Z,22.57
2023-05-01T07:06:14.312Z,22.67
2023-05-01T07:08:41.087Z,22.71
2023-05-01T07:11:08.035Z,22.43
2023-05-01T07:13:35.307Z,19.89
2023-05-01T07:16:02.310Z,17.85
2023-05-01T07:18:29.576Z,19.35
2023-05-01T07:20:56.306Z,20.51
2023-05-01T07:23:23.598Z,20.94
2023-05-01T07:25:50.468Z,21.20
2023-05-01T07:28:18.029Z,21.44
2023-05-01T07:30:44.771Z,21.63
2023-05-01T07:33:11.920Z,21.73
2023-05-01T07:35:38.680Z,21.96
2023-05-01T07:38:05.466Z,21.98
2023-05-01T07:40:32.362Z,22.09
2023-05-01T07:42:59.327Z,22.19
2023-05-01T07:45:26.085Z,22.21
2023-05-01T07:47:53.194Z,22.31
2023-05-01T07:50:19.981Z,22.39
2023-05-01T07:52:46.798Z,22.48
2023-05-01T07:55:13.596Z,22.46
2023-05-01T07:57:40.375Z,22.56
2023-05-01T08:00:07.609Z,22.59
2023-05-01T08:02:34.454Z,22.65
2023-05-01T08:05:02.677Z,22.63
2023-05-01T08:07:29.487Z,22.49
2023-05-01T08:09:59.176Z,20.28
2023-05-01T08:12:27.282Z,20.11
2023-05-01T08:14:54.076Z,20.93
2023-05-01T08:17:21.199Z,21.42
2023-05-01T08:19:47.950Z,21.72
2023-05-01T08:22:14.694Z,21.81
2023-05-01T08:24:42.746Z,22.01
2023-05-01T08:27:09.499Z,22.20
2023-05-01T08:29:36.238Z,22.27
2023-05-01T08:32:02.994Z,22.35
2023-05-01T08:34:29.802Z,22.51
2023-05-01T08:36:57.042Z,22.62
2023-05-01T08:39:23.863Z,22.70
2023-05-01T08:41:50.733Z,22.68
2023-05-01T08:44:17.485Z,22.70
2023-05-01T08:46:44.648Z,21.71
2023-05-01T08:49:11.463Z,20.07
2023-05-01T08:51:38.413Z,19.80
2023-05-01T08:54:05.181Z,20.94
2023-05-01T08:56:33.355Z,21.52
2023-05-01T08:59:00.454Z,21.79
2023-05-01T09:01:27.398Z,21.99
2023-05-01T09:03:54.201Z,22.09
2023-05-01T09:06:21.124Z,22.22
2023-05-01T09:08:47.915Z,22.29
2023-05-01T09:11:14.658Z,22.48
2023-05-01T09:13:41.442Z,22.59
2023-05-01T09:16:08.274Z,22.49
2023-05-01T09:18:35.082Z,22.61
2023-05-01T09:21:01.831Z,22.68
2023-05-01T09:23:28.592Z,22.10
2023-05-01T09:25:55.495Z,19.90
2023-05-01T09:28:22.247Z,19.49
2023-05-01T09:30:49.023Z,20.95
2023-05-01T09:33:18.655Z,21.34
2023-05-01T09:35:45.829Z,21.71
2023-05-01T09:38:12.598Z,21.81
2023-05-01T09:40:39.331Z,21.96
2023-05-01T09:43:06.091Z,22.06
2023-05-01T09:45:32.870Z,22.20
2023-05-01T09:47:59.626Z,22.32
2023-05-01T09:50:26.459Z,22.42
2023-05-01T09:52:53.232Z,22.54
2023-05-01T09:55:20.077Z,22.54
2023-05-01T09:57:47.100Z,22.55
2023-05-01T10:00:15.350Z,22.65
2023-05-01T10:02:42.162Z,22.72
2023-05-01T10:05:09.226Z,21.76
2023-05-01T10:07:35.977Z,19.73
2023-05-01T10:10:03.077Z,19.52
2023-05-01T10:12:32.433Z,20.71
2023-05-01T10:15:03.402Z,21.36
2023-05-01T10:17:34.875Z,21.61
2023-05-01T10:20:01.674Z,21.86
2023-05-01T10:22:28.562Z,21.94
2023-05-01T10:24:55.657Z,22.10
2023-05-01T10:27:22.759Z,22.17
2023-05-01T10:29:49.617Z,22.17
2023-05-01T10:32:16.379Z,22.28
2023-05-01T10:34:43.150Z,22.47
2023-05-01T10:37:09.910Z,22.51
2023-05-01T10:39:36.709Z,22.61
2023-05-01T10:42:03.648Z,22.60
2023-05-01T10:44:30.776Z,22.65
2023-05-01T10:46:57.772Z,21.98
2023-05-01T10:49:24.862Z,19.99
2023-05-01T10:51:51.626Z,19.50
2023-05-01T10:54:18.405Z,20.81
2023-05-01T10:56:45.191Z,21.34
2023-05-01T10:59:12.839Z,21.76
2023-05-01T11:01:39.866Z,21.87
2023-05-01T11:04:10.123Z,22.08
2023-05-01T11:06:37.983Z,22.12
2023-05-01T11:09:04.974Z,22.15
2023-05-01T11:11:31.766Z,22.25
2023-05-01T11:13:58.580Z,22.35
2023-05-01T11:16:25.324Z,22.42
2023-05-01T11:18:52.124Z,22.53
2023-05-01T11:21:18.871Z,22.53
2023-05-01T11:23:45.625Z,22.57
2023-05-01T11:26:12.381Z,22.71
2023-05-01T11:28:39.125Z,22.25
2023-05-01T11:31:05.873Z,19.98
2023-05-01T11:33:32.649Z,19.30
2023-05-01T11:36:00.193Z,20.55
2023-05-01T11:38:27.143Z,21.25
2023-05-01T11:40:54.003Z,21.59
2023-05-01T11:43:20.758Z,21.79
2023-05-01T11:45:47.595Z,22.00
2023-05-01T11:48:14.480Z,22.11
2023-05-01T11:50:42.673Z,22.16
2023-05-01T11:53:11.532Z,22.24
2023-05-01T11:55:41.274Z,22.38
2023-05-01T11:58:08.016Z,22.39
2023-05-01T12:00:36.628Z,22.57
2023-05-01T12:03:03.779Z,22.58
2023-05-01T12:05:30.755Z,22.70
2023-05-01T12:07:57.503Z,22.65
2023-05-01T12:10:24.280Z,20.05
2023-05-01T12:12:51.017Z,19.60
2023-05-01T12:15:17.775Z,20.36
2023-05-01T12:17:46.756Z,21.24
2023-05-01T12:20:13.627Z,21.57
2023-05-01T12:22:40.584Z,21.80
2023-05-01T12:25:07.354Z,21.92
2023-05-01T12:27:34.278Z,22.09
2023-05-01T12:30:01.041Z,22.06
2023-05-01T12:32:27.859Z,22.28
2023-05-01T12:34:54.632Z,22.42
2023-05-01T12:37:22.042Z,22.48
2023-05-01T12:39:49.498Z,22.56
2023-05-01T12:42:16.822Z,22.74
2023-05-01T12:44:43.572Z,22.46
2023-05-01T12:47:10.371Z,22.62
2023-05-01T12:49:37.389Z,22.73
2023-05-01T12:52:04.196Z,22.25
2023-05-01T12:54:30.987Z,20.08
2023-05-01T12:56:58.839Z,19.66
2023-05-01T12:59:25.679Z,20.90
2023-05-01T13:01:52.474Z,21.61
2023-05-01T13:04:19.347Z,21.94
2023-05-01T13:06:46.223Z,22.12
2023-05-01T13:09:15.229Z,22.20
2023-05-01T13:11:41.984Z,22.26
2023-05-01T13:14:08.871Z,22.34
2023-05-01T13:16:35.676Z,22.40
2023-05-01T13:19:05.579Z,22.49
2023-05-01T13:21:32.710Z,22.49
2023-05-01T13:23:59.507Z,22.54
2023-05-01T13:26:27.033Z,22.61
2023-05-01T13:28:53.797Z,22.70
2023-05-01T13:31:20.788Z,20.94
2023-05-01T13:33:47.564Z,19.81
2023-05-01T13:36:25.295Z,19.92
2023-05-01T13:38:53.975Z,21.33
2023-05-01T13:41:20.890Z,21.64
2023-05-01T13:43:47.661Z,21.93
2023-05-01T13:46:15.097Z,22.10
2023-05-01T13:48:41.939Z,22.20
2023-05-01T13:51:09.260Z,22.37
2023-05-01T13:53:36.053Z,22.28
2023-05-01T13:56:02.806Z,22.45
2023-05-01T13:58:30.020Z,22.60
2023-05-01T14:00:57.198Z,22.55
2023-05-01T14:03:24.089Z,22.57
2023-05-01T14:05:50.930Z,22.58
2023-05-01T14:08:17.719Z,20.13
2023-05-01T14:10:44.455Z,19.58
2023-05-01T14:13:11.189Z,20.33
2023-05-01T14:15:42.954Z,21.34
2023-05-01T14:18:10.556Z,21.77
2023-05-01T14:20:37.359Z,21.89
2023-05-01T14:23:04.176Z,22.05
2023-05-01T14:25:31.388Z,22.17
2023-05-01T14:27:58.132Z,22.15
2023-05-01T14:30:26.080Z,22.24
2023-05-01T14:32:53.137Z,22.42
2023-05-01T14:35:19.933Z,22.50
2023-05-01T14:37:46.793Z,22.54
2023-05-01T14:40:13.643Z,22.72
2023-05-01T14:42:40.403Z,22.73
2023-05-01T14:45:07.523Z,20.90
2023-05-01T14:47:34.296Z,19.50
2023-05-01T14:50:01.122Z,19.73
2023-05-01T14:52:27.966Z,21.10
2023-05-01T14:54:54.710Z,21.54
2023-05-01T14:57:21.482Z,21.75
2023-05-01T14:59:48.238Z,22.00
2023-05-01T15:02:15.172Z,22.18
2023-05-01T15:04:42.007Z,22.21
2023-05-01T15:07:08.825Z,22.26
2023-05-01T15:09:35.564Z,22.42
2023-05-01T15:12:04.929Z,22.44
2023-05-01T15:14:32.926Z,22.49
2023-05-01T15:16:59.690Z,22.58
2023-05-01T15:19:26.451Z,22.57
2023-05-01T15:21:53.311Z,22.82
2023-05-01T15:24:20.163Z,20.36
2023-05-01T15:26:46.905Z,19.63
2023-05-01T15:29:13.735Z,20.19
2023-05-01T15:31:40.707Z,21.19
2023-05-01T15:34:07.500Z,21.67
2023-05-01T15:36:34.574Z,21.78
2023-05-01T15:39:01.321Z,21.99
2023-05-01T15:41:28.069Z,22.08
2023-05-01T15:43:55.038Z,22.19
2023-05-01T15:46:23.336Z,22.29
2023-05-01T15:48:50.208Z,22.49
2023-05-01T15:51:17.022Z,22.47
2023-05-01T15:53:43.948Z,22.60
2023-05-01T15:56:10.717Z,22.58
2023-05-01T15:58:37.501Z,22.48
2023-05-01T16:01:04.299Z,20.25
2023-05-01T16:03:31.756Z,19.71
2023-05-01T16:05:59.115Z,20.63
2023-05-01T16:08:26.214Z,21.39
2023-05-01T16:10:53.749Z,21.65
2023-05-01T16:13:20.525Z,21.90
2023-05-01T16:15:47.257Z,22.04
2023-05-01T16:18:14.135Z,22.19
2023-05-01T16:20:41.039Z,22.36
2023-05-01T16:23:08.489Z,22.37
2023-05-01T16:25:35.242Z,22.46
2023-05-01T16:28:02.035Z,22.54
2023-05-01T16:30:28.836Z,22.61
2023-05-01T16:32:55.674Z,22.64
2023-05-01T16:35:22.484Z,22.69
2023-05-01T16:37:49.241Z,21.77
2023-05-01T16:40:16.204Z,22.23
2023-05-01T16:42:42.993Z,22.46
2023-05-01T16:45:09.748Z,22.61
2023-05-01T16:47:36.724Z,20.61
2023-05-01T16:50:03.865Z,19.94
2023-05-01T16:52:30.756Z,20.55
2023-05-01T16:54:59.283Z,21.39
2023-05-01T16:57:26.040Z,21.72
2023-05-01T16:59:52.948Z,21.93
2023-05-01T17:02:19.801Z,22.09
2023-05-01T17:04:46.784Z,22.32
2023-05-01T17:07:13.580Z,22.30
2023-05-01T17:09:40.752Z,22.47
2023-05-01T17:12:07.553Z,22.50
2023-05-01T17:14:34.373Z,22.60
2023-05-01T17:17:01.812Z,22.60
2023-05-01T17:19:28.683Z,22.78
2023-05-01T17:21:57.713Z,20.24
2023-05-01T17:24:24.518Z,19.79
2023-05-01T17:26:51.337Z,20.68
2023-05-01T17:29:18.131Z,21.59
2023-05-01T17:31:44.963Z,21.81
2023-05-01T17:34:11.771Z,21.98
2023-05-01T17:36:38.553Z,22.14
2023-05-01T17:39:05.305Z,22.25
2023-05-01T17:41:32.117Z,22.25
2023-05-01T17:43:58.957Z,22.31
2023-05-01T17:46:25.841Z,22.46
2023-05-01T17:48:53.400Z,22.53
2023-05-01T17:51:20.211Z,22.64
2023-05-01T17:53:47.162Z,22.64
2023-05-01T17:56:13.926Z,20.41
2023-05-01T17:58:41.143Z,19.74
2023-05-01T18:01:07.973Z,20.34
2023-05-01T18:03:34.915Z,21.44
2023-05-01T18:06:02.291Z,21.64
2023-05-01T18:08:29.160Z,21.87
2023-05-01T18:10:55.976Z,22.10
2023-05-01T18:13:27.837Z,22.21
2023-05-01T18:15:55.204Z,22.29
2023-05-01T18:18:22.205Z,22.42
2023-05-01T18:20:49.105Z,22.49
2023-05-01T18:23:16.004Z,22.59
2023-05-01T18:25:42.913Z,22.60
2023-05-01T18:28:10.065Z,22.49
2023-05-01T18:30:37.417Z,19.85
2023-05-01T18:33:04.593Z,19.43
2023-05-01T18:35:31.562Z,20.67
2023-05-01T18:37:58.322Z,21.34
2023-05-01T18:40:26.932Z,21.60
2023-05-01T18:42:53.693Z,21.73
2023-05-01T18:45:20.506Z,22.06
2023-05-01T18:47:47.733Z,22.10
2023-05-01T18:50:16.572Z,22.25
2023-05-01T18:52:43.329Z,22.27
2023-05-01T18:55:11.626Z,22.38
2023-05-01T18:57:41.512Z,22.40
2023-05-01T19:00:09.048Z,22.51
2023-05-01T19:02:36.648Z,22.68
2023-05-01T19:05:03.589Z,22.70
2023-05-01T19:07:30.788Z,20.26
2023-05-01T19:09:57.698Z,19.62
2023-05-01T19:12:24.536Z,20.26
2023-05-01T19:14:51.285Z,21.26
2023-05-01T19:17:18.152Z,21.53
2023-05-01T19:19:45.021Z,21.77
2023-05-01T19:22:11.760Z,21.89
2023-05-01T19:24:38.510Z,22.12
2023-05-01T19:27:05.264Z,22.18
2023-05-01T19:29:32.147Z,22.31
2023-05-01T19:32:00.376Z,22.42
2023-05-01T19:34:27.282Z,22.54
2023-05-01T19:36:56.674Z,22.52
2023-05-01T19:39:23.484Z,22.58
2023-05-01T19:41:50.408Z,22.66
2023-05-01T19:44:17.154Z,21.31
2023-05-01T19:46:44.291Z,19.66
2023-05-01T19:49:11.070Z,19.69
2023-05-01T19:51:37.841Z,20.88
2023-05-01T19:54:04.638Z,21.46
2023-05-01T19:56:31.459Z,21.70
2023-05-01T19:58:58.273Z,21.93
2023-05-01T20:01:25.084Z,22.05
2023-05-01T20:03:52.177Z,22.07
2023-05-01T20:06:19.094Z,22.22
2023-05-01T20:08:47.099Z,22.36
2023-05-01T20:11:13.894Z,22.46
2023-05-01T20:13:40.670Z,22.50
2023-05-01T20:16:09.490Z,22.53
2023-05-01T20:18:36.448Z,22.70
2023-05-01T20:21:03.426Z,22.76
2023-05-01T20:23:30.232Z,20.32
2023-05-01T20:25:57.037Z,19.31
2023-05-01T20:28:23.777Z,19.97
2023-05-01T20:30:50.671Z,21.09
2023-05-01T20:33:17.848Z,21.56
2023-05-01T20:35:45.112Z,21.75
2023-05-01T20:38:12.003Z,21.83
2023-05-01T20:40:42.172Z,21.98
2023-05-01T20:43:08.955Z,22.14
2023-05-01T20:45:35.742Z,22.30
2023-05-01T20:48:02.691Z,22.29
2023-05-01T20:50:29.587Z,22.35
2023-05-01T20:52:56.423Z,22.49
2023-05-01T20:55:23.200Z,22.57
2023-05-01T20:57:49.953Z,22.60
2023-05-01T21:00:17.109Z,22.69
2023-05-01T21:02:44.104Z,22.69
2023-05-01T21:05:11.114Z,20.13
2023-05-01T21:07:38.029Z,18.78
2023-05-01T21:10:04.844Z,19.12
2023-05-01T21:12:31.598Z,20.54
2023-05-01T21:14:58.410Z,21.14
2023-05-01T21:17:26.083Z,21.47
2023-05-01T21:19:52.895Z,21.58
2023-05-01T21:22:19.658Z,21.79
2023-05-01T21:24:46.591Z,21.98
2023-05-01T21:27:13.403Z,21.97
2023-05-01T21:29:40.693Z,22.09
2023-05-01T21:32:07.689Z,22.13
2023-05-01T21:34:34.502Z,22.21
2023-05-01T21:37:01.311Z,22.29
2023-05-01T21:39:28.070Z,22.39
2023-05-01T21:41:54.882Z,22.38
2023-05-01T21:44:21.659Z,22.46
2023-05-01T21:46:48.402Z,22.60
2023-05-01T21:49:18.356Z,22.70
2023-05-01T21:51:45.176Z,22.66
2023-05-01T21:54:11.921Z,21.61
2023-05-01T21:56:38.675Z,19.34
2023-05-01T21:59:05.735Z,17.95
2023-05-01T22:01:32.624Z,19.75
2023-05-01T22:03:59.593Z,20.87
2023-05-01T22:06:26.730Z,21.25
2023-05-01T22:08:53.568Z,21.53
2023-05-01T22:11:20.330Z,21.69
2023-05-01T22:13:47.117Z,21.77
2023-05-01T22:16:14.009Z,21.98
2023-05-01T22:18:40.826Z,22.10
2023-05-01T22:21:07.682Z,22.13
2023-05-01T22:23:34.452Z,22.19
2023-05-01T22:26:01.262Z,22.21
2023-05-01T22:28:28.311Z,22.45
2023-05-01T22:30:55.131Z,22.40
2023-05-01T22:33:21.979Z,22.43
2023-05-01T22:35:48.763Z,22.44
2023-05-01T22:38:15.603Z,22.54
2023-05-01T22:40:42.388Z,22.70
2023-05-01T22:43:10.098Z,22.72
2023-05-01T22:45:36.848Z,21.09
2023-05-01T22:48:03.657Z,19.02
2023-05-01T22:50:30.425Z,18.61
2023-05-01T22:52:57.186Z,20.03
2023-05-01T22:55:23.953Z,20.83
2023-05-01T22:57:50.871Z,21.28
2023-05-01T23:00:17.617Z,21.48
2023-05-01T23:02:44.442Z,21.67
2023-05-01T23:05:11.350Z,21.83
2023-05-01T23:07:38.500Z,22.00
2023-05-01T23:10:05.253Z,22.05
2023-05-01T23:12:32.037Z,22.10
2023-05-01T23:14:58.801Z,22.18
2023-05-01T23:17:25.578Z,22.28
2023-05-01T23:19:54.572Z,22.33
2023-05-01T23:22:22.970Z,22.50
2023-05-01T23:24:49.817Z,22.37
2023-05-01T23:27:16.763Z,22.54
2023-05-01T23:29:43.571Z,22.57
2023-05-01T23:32:10.677Z,22.64
2023-05-01T23:34:37.879Z,22.68
2023-05-01T23:37:04.638Z,19.98
2023-05-01T23:39:31.450Z,18.76
2023-05-01T23:41:58.255Z,19.09
2023-05-01T23:44:25.082Z,20.38
2023-05-01T23:46:51.957Z,21.03
2023-05-01T23:49:18.774Z,21.37
2023-05-01T23:51:45.536Z,21.41
2023-05-01T23:54:12.277Z,21.66
2023-05-01T23:56:39.068Z,21.79
2023-05-01T23:59:05.844Z,21.86
